Time;durP1;ratioP1;P1;durP2;ratioP2;P2;SDS_P1;SDS_P2;PMS_P1;PMS_P2;Temp;Humidity;BMP_temperature;BMP_pressure;BME280_temperature;BME280_humidity;BME280_pressure;Samples;Min_cycle;Max_cycle;Signal;HPM_P1;HPM_P2
2021/11/10 00:02:25;;;;;;;11.88;9.57;;;2.50;99.90;;;;;;4981832;28;20065;-74
2021/11/10 00:04:51;;;;;;;11.07;8.88;;;2.50;99.90;;;;;;4988793;28;20018;-74
2021/11/10 00:07:16;;;;;;;10.82;9.55;;;2.50;99.90;;;;;;4976095;28;20528;-74
2021/11/10 00:09:42;;;;;;;10.68;9.57;;;2.30;99.90;;;;;;4984406;28;20057;-74
2021/11/10 00:12:07;;;;;;;9.82;8.82;;;2.40;99.90;;;;;;4981476;28;20022;-74
2021/11/10 00:14:33;;;;;;;10.82;9.15;;;2.30;99.90;;;;;;4978679;28;20425;-75
2021/11/10 00:16:59;;;;;;;10.60;9.50;;;2.20;99.90;;;;;;4981417;28;20031;-74
2021/11/10 00:19:24;;;;;;;11.07;9.02;;;2.20;99.90;;;;;;4982966;28;20035;-74
2021/11/10 00:21:51;;;;;;;9.48;8.50;;;2.10;99.90;;;;;;4985483;28;20109;-74
2021/11/10 00:24:17;;;;;;;9.15;8.25;;;2.20;99.90;;;;;;4981872;28;20034;-74
2021/11/10 00:26:43;;;;;;;10.25;9.20;;;2.00;99.90;;;;;;4984231;28;20499;-74
2021/11/10 00:29:08;;;;;;;10.25;9.13;;;2.20;99.90;;;;;;4988012;28;20034;-74
2021/11/10 00:31:34;;;;;;;11.02;9.20;;;2.00;99.90;;;;;;4988916;28;20018;-74
2021/11/10 00:34:00;;;;;;;10.50;8.90;;;2.10;99.90;;;;;;4993591;28;20057;-75
2021/11/10 00:36:25;;;;;;;10.02;8.93;;;2.10;99.90;;;;;;4976441;28;20042;-74
2021/11/10 00:38:51;;;;;;;10.50;9.05;;;2.20;99.90;;;;;;4976529;28;20022;-74
2021/11/10 00:41:16;;;;;;;13.38;10.30;;;2.10;99.90;;;;;;4976317;28;20568;-75
2021/11/10 00:43:42;;;;;;;12.27;10.40;;;1.80;99.90;;;;;;4976604;28;20031;-75
2021/11/10 00:46:08;;;;;;;11.55;9.77;;;1.70;99.90;;;;;;4975130;28;20019;-75
2021/11/10 00:48:33;;;;;;;12.63;10.25;;;1.70;99.90;;;;;;4976411;28;20493;-75
2021/11/10 00:50:59;;;;;;;12.35;10.52;;;1.60;99.90;;;;;;4975054;28;20131;-75
2021/11/10 00:53:24;;;;;;;14.55;11.55;;;1.50;99.90;;;;;;4995829;28;20018;-75
2021/11/10 00:55:51;;;;;;;11.90;10.73;;;1.60;99.90;;;;;;4994609;28;20027;-75
2021/11/10 00:58:16;;;;;;;14.65;11.98;;;1.60;99.90;;;;;;4987745;28;20496;-76
2021/11/10 01:00:42;;;;;;;12.35;10.95;;;1.60;99.90;;;;;;4975265;28;20035;-75
2021/11/10 01:03:08;;;;;;;12.30;11.00;;;1.70;99.90;;;;;;4983485;28;20037;-74
2021/11/10 01:05:35;;;;;;;13.00;11.00;;;1.50;99.90;;;;;;4995406;28;20492;-73
2021/11/10 01:08:03;;;;;;;11.98;10.77;;;1.60;99.90;;;;;;4994175;28;20037;-73
2021/11/10 01:10:31;;;;;;;15.80;13.55;;;1.60;99.90;;;;;;4994097;28;20054;-73
2021/11/10 01:12:57;;;;;;;16.40;12.43;;;1.60;99.90;;;;;;4995553;28;20058;-74
2021/11/10 01:15:23;;;;;;;13.20;11.48;;;1.60;99.90;;;;;;4995486;28;20026;-73
2021/11/10 01:17:49;;;;;;;14.18;12.68;;;1.80;99.90;;;;;;4994169;28;20062;-73
2021/11/10 01:20:15;;;;;;;12.82;10.38;;;1.60;99.90;;;;;;4995264;28;20058;-73
2021/11/10 01:22:42;;;;;;;13.60;11.73;;;1.70;99.90;;;;;;4994922;28;20511;-73
2021/11/10 01:25:09;;;;;;;13.50;12.13;;;1.60;99.90;;;;;;4995239;28;20554;-74
2021/11/10 01:27:34;;;;;;;13.77;11.27;;;1.60;99.90;;;;;;4993816;28;20114;-73
2021/11/10 01:30:00;;;;;;;13.02;10.48;;;1.60;99.90;;;;;;4980611;28;20113;-73
2021/11/10 01:32:26;;;;;;;14.60;9.73;;;1.60;99.90;;;;;;4974087;28;20086;-73
2021/11/10 01:34:52;;;;;;;9.60;8.60;;;1.70;99.90;;;;;;4974142;28;20114;-73
2021/11/10 01:37:18;;;;;;;11.20;9.48;;;1.70;99.90;;;;;;4975379;28;20106;-73
2021/11/10 01:39:44;;;;;;;12.10;10.80;;;1.90;99.90;;;;;;4963396;28;20053;-73
2021/11/10 01:42:10;;;;;;;11.05;9.68;;;1.70;99.90;;;;;;4989489;28;20552;-73
2021/11/10 01:44:38;;;;;;;10.55;8.95;;;1.70;99.90;;;;;;4974881;28;20023;-73
2021/11/10 01:47:10;;;;;;;11.68;9.30;;;1.60;99.90;;;;;;4975423;28;20034;-73
2021/11/10 01:49:37;;;;;;;12.48;9.52;;;1.60;99.90;;;;;;4975167;28;20114;-73
2021/11/10 01:52:03;;;;;;;11.75;9.40;;;1.50;99.90;;;;;;4975027;28;20038;-73
2021/11/10 01:54:30;;;;;;;11.82;10.07;;;1.60;99.90;;;;;;4975124;28;20027;-73
2021/11/10 01:56:57;;;;;;;11.30;9.23;;;1.50;99.90;;;;;;4975269;28;20385;-73
2021/11/10 01:59:28;;;;;;;11.68;9.75;;;1.60;99.90;;;;;;4975105;28;20063;-73
2021/11/10 02:01:54;;;;;;;10.98;9.80;;;1.70;99.90;;;;;;4975323;28;20045;-73
2021/11/10 02:04:20;;;;;;;11.68;10.15;;;1.60;99.90;;;;;;4973606;28;20027;-73
2021/11/10 02:06:45;;;;;;;11.77;9.15;;;1.50;99.90;;;;;;4974996;28;20027;-73
2021/11/10 02:09:11;;;;;;;10.93;9.82;;;1.70;99.90;;;;;;4974877;28;20035;-73
2021/11/10 02:11:39;;;;;;;12.85;9.68;;;1.60;99.90;;;;;;4974738;28;20057;-74
2021/11/10 02:14:05;;;;;;;11.20;10.05;;;1.70;99.90;;;;;;4973603;28;20504;-73
2021/11/10 02:16:31;;;;;;;11.13;9.88;;;1.70;99.90;;;;;;4974963;28;20045;-73
2021/11/10 02:18:57;;;;;;;11.70;10.05;;;1.70;99.90;;;;;;4973315;28;20393;-73
2021/11/10 02:21:24;;;;;;;10.98;8.90;;;1.70;99.90;;;;;;4973309;28;20088;-73
2021/11/10 02:23:50;;;;;;;11.27;9.68;;;1.90;99.90;;;;;;4974686;28;20038;-74
2021/11/10 02:26:22;;;;;;;10.27;9.05;;;1.90;99.90;;;;;;4974605;28;20052;-74
2021/11/10 02:28:49;;;;;;;11.48;9.45;;;1.90;99.90;;;;;;4975349;28;20061;-74
2021/11/10 02:31:15;;;;;;;10.43;9.32;;;2.00;99.90;;;;;;4975012;28;20030;-74
2021/11/10 02:33:41;;;;;;;12.02;9.80;;;2.00;99.90;;;;;;4974409;28;20038;-73
2021/11/10 02:36:07;;;;;;;11.45;9.88;;;2.10;99.90;;;;;;4974503;28;20110;-73
2021/11/10 02:38:33;;;;;;;11.40;9.90;;;2.00;99.90;;;;;;4974438;28;20134;-73
2021/11/10 02:41:20;;;;;;;11.60;10.18;;;1.90;99.90;;;;;;4973225;28;20289;-74
2021/11/10 02:43:45;;;;;;;11.75;9.98;;;1.90;99.90;;;;;;4979027;28;20022;-74
2021/11/10 02:46:12;;;;;;;11.50;10.38;;;1.80;99.90;;;;;;4983348;28;20049;-73
2021/11/10 02:48:37;;;;;;;12.80;10.50;;;1.80;99.90;;;;;;4976260;28;20031;-74
2021/11/10 02:51:07;;;;;;;12.52;10.75;;;2.00;99.90;;;;;;4980102;28;20409;-74
2021/11/10 02:53:33;;;;;;;15.48;13.05;;;1.70;99.90;;;;;;4972797;28;20074;-74
2021/11/10 02:55:58;;;;;;;14.68;12.10;;;1.30;99.90;;;;;;4972957;28;20493;-74
2021/11/10 02:58:24;;;;;;;15.15;11.77;;;1.20;99.90;;;;;;4972642;28;20125;-74
2021/11/10 03:00:50;;;;;;;15.98;13.23;;;1.20;99.90;;;;;;4972214;28;20058;-74
2021/11/10 03:03:15;;;;;;;15.13;12.70;;;1.00;99.90;;;;;;4981697;28;20041;-74
2021/11/10 03:05:47;;;;;;;18.60;13.63;;;0.90;99.90;;;;;;4992025;28;20026;-74
2021/11/10 03:08:18;;;;;;;14.38;11.98;;;1.00;99.90;;;;;;4992664;28;20085;-73
2021/11/10 03:10:43;;;;;;;13.65;11.68;;;1.20;99.90;;;;;;4975902;28;20025;-73
2021/11/10 03:13:09;;;;;;;13.82;11.88;;;1.20;99.90;;;;;;4991974;28;20018;-72
2021/11/10 03:15:39;;;;;;;14.98;11.98;;;1.20;99.90;;;;;;4992969;28;20034;-72
2021/11/10 03:18:04;;;;;;;14.57;13.05;;;1.00;99.90;;;;;;4993403;28;20507;-73
2021/11/10 03:20:30;;;;;;;15.00;13.45;;;1.00;99.90;;;;;;4991759;28;20121;-73
2021/11/10 03:22:56;;;;;;;15.52;13.43;;;1.00;99.90;;;;;;4991685;28;20018;-73
2021/11/10 03:25:21;;;;;;;14.52;13.13;;;1.00;99.90;;;;;;4993137;28;20384;-74
2021/11/10 03:27:47;;;;;;;13.80;12.40;;;1.10;99.90;;;;;;4992876;28;20370;-74
2021/11/10 03:30:13;;;;;;;15.63;12.43;;;1.00;99.90;;;;;;4972026;28;20034;-74
2021/11/10 03:32:38;;;;;;;16.52;13.20;;;0.90;99.90;;;;;;4980764;28;20026;-73
2021/11/10 03:35:04;;;;;;;14.27;12.30;;;0.90;99.90;;;;;;4982619;28;20035;-73
2021/11/10 03:37:30;;;;;;;14.77;11.90;;;0.80;99.90;;;;;;4973361;28;20050;-74
2021/11/10 03:39:56;;;;;;;15.45;13.90;;;0.80;99.90;;;;;;4972049;28;20113;-73
2021/11/10 03:42:22;;;;;;;13.80;11.90;;;0.80;99.90;;;;;;4971692;28;20148;-73
2021/11/10 03:44:48;;;;;;;13.90;12.40;;;0.80;99.90;;;;;;4973276;28;20018;-73
2021/11/10 03:47:13;;;;;;;15.45;13.63;;;0.70;99.90;;;;;;4973186;28;20053;-73
2021/11/10 03:49:39;;;;;;;14.02;12.27;;;0.70;99.90;;;;;;4973038;28;20497;-74
2021/11/10 03:52:05;;;;;;;12.50;11.35;;;0.60;99.90;;;;;;4973044;28;20023;-74
2021/11/10 03:54:31;;;;;;;14.27;12.30;;;0.80;99.90;;;;;;4973050;28;20489;-74
2021/11/10 03:56:56;;;;;;;17.38;14.57;;;0.80;99.90;;;;;;4973044;28;20081;-74
2021/11/10 03:59:22;;;;;;;15.52;12.45;;;0.80;99.90;;;;;;4973193;28;20030;-74
2021/11/10 04:01:48;;;;;;;15.70;13.35;;;0.80;99.90;;;;;;4973143;28;20027;-74
2021/11/10 04:04:13;;;;;;;15.90;13.98;;;0.90;99.90;;;;;;4987844;28;20030;-74
2021/11/10 04:06:39;;;;;;;15.18;13.43;;;0.70;99.90;;;;;;4991795;28;20085;-74
2021/11/10 04:09:06;;;;;;;18.45;15.23;;;0.70;99.90;;;;;;4992297;28;20377;-74
2021/11/10 04:11:32;;;;;;;14.90;13.48;;;0.70;99.90;;;;;;4990893;28;20113;-75
2021/11/10 04:13:57;;;;;;;15.98;14.18;;;0.60;99.90;;;;;;4992314;28;20026;-75
2021/11/10 04:16:23;;;;;;;19.38;17.35;;;0.60;99.90;;;;;;4990971;28;20053;-74
2021/11/10 04:18:55;;;;;;;17.15;15.10;;;0.40;99.90;;;;;;4991007;28;20037;-73
2021/11/10 04:21:22;;;;;;;16.45;14.30;;;0.50;99.90;;;;;;4992116;28;20022;-74
2021/11/10 04:23:50;;;;;;;16.42;13.88;;;0.50;99.90;;;;;;4992176;28;20030;-74
2021/11/10 04:26:18;;;;;;;15.35;13.73;;;0.50;99.90;;;;;;4992116;28;20106;-73
2021/11/10 04:28:44;;;;;;;15.57;13.88;;;0.50;99.90;;;;;;4992096;28;20109;-73
2021/11/10 04:31:10;;;;;;;16.20;14.45;;;0.50;99.90;;;;;;4990815;28;20029;-73
2021/11/10 04:33:36;;;;;;;20.20;15.77;;;0.50;99.90;;;;;;4992130;28;20018;-74
2021/11/10 04:36:02;;;;;;;17.88;14.57;;;0.60;99.90;;;;;;4972902;28;20034;-73
2021/11/10 04:38:27;;;;;;;16.08;14.35;;;0.40;99.90;;;;;;4972659;28;20122;-73
2021/11/10 04:40:53;;;;;;;18.17;15.25;;;0.30;99.90;;;;;;4971122;28;20042;-74
2021/11/10 04:43:19;;;;;;;15.57;14.00;;;0.40;99.90;;;;;;4972544;28;20027;-74
2021/11/10 04:45:47;;;;;;;16.05;14.32;;;0.40;99.90;;;;;;4972678;28;20062;-73
2021/11/10 04:48:12;;;;;;;24.83;21.08;;;0.40;99.90;;;;;;4972387;28;20114;-73
2021/11/10 04:50:42;;;;;;;37.28;30.20;;;0.20;99.90;;;;;;4972739;28;20054;-73
2021/11/10 04:53:08;;;;;;;30.98;25.80;;;0.10;99.90;;;;;;4971100;28;20027;-73
2021/11/10 04:55:34;;;;;;;26.10;22.55;;;-0.10;99.90;;;;;;4971380;28;20019;-73
2021/11/10 04:58:00;;;;;;;25.70;22.55;;;-0.10;99.90;;;;;;4976798;28;20081;-73
2021/11/10 05:00:27;;;;;;;26.17;21.98;;;-0.10;99.90;;;;;;4972294;28;20389;-73
2021/11/10 05:02:52;;;;;;;23.42;20.92;;;-0.20;99.90;;;;;;4989436;28;20511;-73
2021/11/10 05:05:18;;;;;;;22.98;17.25;;;-0.30;99.90;;;;;;4990813;28;20027;-73
2021/11/10 05:07:49;;;;;;;19.00;17.13;;;-0.20;99.90;;;;;;4990649;28;20030;-73
2021/11/10 05:10:16;;;;;;;20.13;18.02;;;-0.10;99.90;;;;;;4991942;28;20042;-73
2021/11/10 05:12:42;;;;;;;18.75;16.90;;;0.00;99.90;;;;;;4990553;28;20623;-73
2021/11/10 05:15:08;;;;;;;16.88;15.30;;;0.00;99.90;;;;;;4993016;28;20109;-73
2021/11/10 05:17:33;;;;;;;16.40;14.80;;;0.00;99.90;;;;;;4993967;28;20053;-72
2021/11/10 05:19:59;;;;;;;27.15;24.42;;;0.10;99.90;;;;;;4995438;28;20485;-73
2021/11/10 05:22:25;;;;;;;50.60;45.40;;;0.00;99.90;;;;;;4994784;28;20057;-73
2021/11/10 05:24:50;;;;;;;33.70;30.27;;;0.00;99.90;;;;;;4994008;28;20026;-72
2021/11/10 05:27:16;;;;;;;40.83;36.47;;;-0.20;99.90;;;;;;4993907;28;20037;-72
2021/11/10 05:29:42;;;;;;;22.13;19.98;;;-0.30;99.90;;;;;;4995111;28;20042;-72
2021/11/10 05:32:07;;;;;;;20.25;18.35;;;-0.20;99.90;;;;;;4994875;28;20031;-72
2021/11/10 05:34:33;;;;;;;17.25;15.60;;;-0.20;99.90;;;;;;4985002;28;20035;-72
2021/11/10 05:36:59;;;;;;;17.80;16.10;;;-0.10;99.90;;;;;;4975387;28;20490;-72
2021/11/10 05:39:24;;;;;;;25.88;23.42;;;0.00;99.90;;;;;;4975614;28;20477;-73
2021/11/10 05:41:50;;;;;;;17.25;15.65;;;-0.20;99.90;;;;;;4975453;28;20454;-73
2021/11/10 05:44:16;;;;;;;19.10;17.30;;;-0.20;99.90;;;;;;4975588;28;20051;-72
2021/11/10 05:46:42;;;;;;;18.00;16.35;;;-0.10;99.90;;;;;;4974220;28;20031;-72
2021/11/10 05:49:08;;;;;;;18.50;16.77;;;-0.10;99.90;;;;;;4975480;28;20031;-72
2021/11/10 05:51:34;;;;;;;22.10;19.90;;;-0.10;99.90;;;;;;4973862;28;20023;-73
2021/11/10 05:54:00;;;;;;;19.17;17.35;;;-0.30;99.90;;;;;;4975411;28;20374;-73
2021/11/10 05:56:27;;;;;;;20.02;18.02;;;-0.30;99.90;;;;;;4973832;28;20034;-73
2021/11/10 05:58:58;;;;;;;19.30;17.50;;;-0.10;99.90;;;;;;4973951;28;20407;-75
2021/11/10 06:01:24;;;;;;;17.60;15.95;;;-0.20;99.90;;;;;;4975004;28;20122;-74
2021/11/10 06:03:51;;;;;;;18.83;16.92;;;-0.20;99.90;;;;;;4973945;28;20034;-74
2021/11/10 06:06:16;;;;;;;18.83;17.02;;;-0.10;99.90;;;;;;4973955;28;20062;-74
2021/11/10 06:08:42;;;;;;;26.55;24.00;;;-0.10;99.90;;;;;;4973782;28;20035;-72
2021/11/10 06:11:09;;;;;;;29.13;26.17;;;-0.20;99.90;;;;;;4974849;28;20030;-74
2021/11/10 06:13:36;;;;;;;28.75;26.08;;;-0.50;99.90;;;;;;4974969;28;20026;-74
2021/11/10 06:16:02;;;;;;;32.80;29.27;;;-0.50;99.90;;;;;;4973522;28;20065;-74
2021/11/10 06:18:29;;;;;;;27.15;24.33;;;-0.40;99.90;;;;;;4974931;28;20110;-74
2021/11/10 06:20:59;;;;;;;26.45;24.05;;;-0.40;99.90;;;;;;4974657;28;20058;-74
2021/11/10 06:23:24;;;;;;;29.90;27.05;;;-0.40;99.90;;;;;;4974768;28;20049;-74
2021/11/10 06:25:50;;;;;;;27.98;25.35;;;-0.30;99.90;;;;;;4973311;28;20030;-74
2021/11/10 06:28:16;;;;;;;26.38;23.98;;;-0.30;99.90;;;;;;4974431;28;20039;-74
2021/11/10 06:30:41;;;;;;;30.92;27.95;;;-0.30;99.90;;;;;;4972917;28;20076;-74
2021/11/10 06:33:07;;;;;;;22.70;20.38;;;-0.30;99.90;;;;;;4974779;28;20405;-73
2021/11/10 06:35:33;;;;;;;24.65;22.15;;;-0.30;99.90;;;;;;4987535;28;20031;-74
2021/11/10 06:37:58;;;;;;;24.38;22.00;;;-0.40;99.90;;;;;;4988681;28;20053;-74
2021/11/10 06:40:24;;;;;;;22.15;19.65;;;-0.50;99.90;;;;;;4980545;28;20088;-73
2021/11/10 06:42:50;;;;;;;25.40;21.75;;;-0.40;99.90;;;;;;4981119;28;20023;-73
2021/11/10 06:45:16;;;;;;;21.48;19.35;;;-0.40;99.90;;;;;;4974329;28;20058;-73
2021/11/10 06:47:42;;;;;;;23.98;21.50;;;-0.40;99.90;;;;;;4973031;28;20065;-73
2021/11/10 06:50:08;;;;;;;22.83;20.30;;;-0.40;99.90;;;;;;4974109;28;20061;-73
2021/11/10 06:52:33;;;;;;;23.15;20.95;;;-0.30;99.90;;;;;;4975129;28;20030;-73
2021/11/10 06:54:59;;;;;;;20.98;18.83;;;-0.30;99.90;;;;;;4965986;28;20506;-73
2021/11/10 06:57:25;;;;;;;26.58;22.33;;;-0.30;99.90;;;;;;4992105;28;20023;-73
2021/11/10 06:59:51;;;;;;;24.15;19.77;;;-0.30;99.90;;;;;;4993516;28;20029;-74
2021/11/10 07:02:17;;;;;;;21.15;18.77;;;-0.30;99.90;;;;;;4993800;28;20032;-74
2021/11/10 07:04:43;;;;;;;21.15;18.58;;;-0.30;99.90;;;;;;4992893;28;20030;-74
2021/11/10 07:07:09;;;;;;;22.52;20.13;;;-0.20;99.90;;;;;;4992461;28;20035;-74
2021/11/10 07:09:35;;;;;;;20.55;18.42;;;-0.20;99.90;;;;;;4993652;28;20113;-75
2021/11/10 07:12:00;;;;;;;22.02;19.70;;;-0.20;99.90;;;;;;4992310;28;20105;-74
2021/11/10 07:14:26;;;;;;;21.95;19.67;;;-0.20;99.90;;;;;;4993504;28;20035;-74
2021/11/10 07:16:53;;;;;;;23.02;20.73;;;-0.20;99.90;;;;;;4992018;28;20117;-74
2021/11/10 07:19:19;;;;;;;22.10;19.80;;;-0.20;99.90;;;;;;4985665;28;20030;-74
2021/11/10 07:21:45;;;;;;;23.60;21.15;;;-0.20;99.90;;;;;;4973777;28;20563;-74
2021/11/10 07:24:10;;;;;;;24.42;22.02;;;-0.10;99.90;;;;;;4985589;28;20031;-74
2021/11/10 07:26:36;;;;;;;23.05;20.73;;;-0.10;99.90;;;;;;4986880;28;20374;-74
2021/11/10 07:29:02;;;;;;;24.25;21.85;;;0.00;99.90;;;;;;4972619;28;20026;-74
2021/11/10 07:31:28;;;;;;;25.38;22.77;;;0.00;99.90;;;;;;4972397;28;20438;-74
2021/11/10 07:33:53;;;;;;;24.17;21.60;;;0.10;99.90;;;;;;4978016;28;20122;-74
2021/11/10 07:36:19;;;;;;;19.15;17.15;;;0.10;99.90;;;;;;4973823;28;20137;-74
2021/11/10 07:38:45;;;;;;;22.30;19.75;;;0.10;99.90;;;;;;4986775;28;20080;-74
2021/11/10 07:41:13;;;;;;;24.63;22.08;;;0.30;99.90;;;;;;4971182;28;20034;-74
2021/11/10 07:43:39;;;;;;;23.33;21.02;;;0.20;99.90;;;;;;4986794;28;20030;-74
2021/11/10 07:46:16;;;;;;;20.33;18.42;;;0.20;99.90;;;;;;4985561;28;20034;-74
2021/11/10 07:48:43;;;;;;;23.75;21.55;;;0.30;99.90;;;;;;4965874;28;20080;-74
2021/11/10 07:51:10;;;;;;;23.00;20.70;;;0.40;99.90;;;;;;4990560;28;20043;-74
2021/11/10 07:53:36;;;;;;;20.95;18.85;;;0.50;99.90;;;;;;4979742;28;20125;-74
2021/11/10 07:56:03;;;;;;;22.83;20.52;;;0.50;99.90;;;;;;4978433;28;20026;-74
2021/11/10 07:58:29;;;;;;;21.48;19.27;;;0.60;99.90;;;;;;4991650;28;20030;-74
2021/11/10 08:00:54;;;;;;;20.52;18.63;;;0.60;99.90;;;;;;4980105;28;20545;-74
2021/11/10 08:03:20;;;;;;;19.38;17.45;;;0.60;99.90;;;;;;4984986;28;20077;-74
2021/11/10 08:05:45;;;;;;;21.05;19.05;;;0.80;99.90;;;;;;4989681;28;20101;-74
2021/11/10 08:08:11;;;;;;;19.48;17.55;;;1.00;99.90;;;;;;4979619;28;20053;-72
2021/11/10 08:10:37;;;;;;;24.63;22.00;;;0.80;99.90;;;;;;4979863;28;20033;-73
2021/11/10 08:13:03;;;;;;;22.08;19.92;;;0.70;99.90;;;;;;4993047;28;20382;-74
2021/11/10 08:15:29;;;;;;;21.83;19.63;;;0.80;99.90;;;;;;4977540;28;20054;-74
2021/11/10 08:17:54;;;;;;;22.17;19.40;;;0.80;99.90;;;;;;4980284;28;20366;-75
2021/11/10 08:20:20;;;;;;;19.00;17.13;;;0.90;99.90;;;;;;4978211;28;20027;-75
2021/11/10 08:22:47;;;;;;;19.35;17.23;;;0.90;99.90;;;;;;4984799;28;20631;-74
2021/11/10 08:25:15;;;;;;;22.35;17.20;;;1.00;99.90;;;;;;4972560;28;20035;-74
2021/11/10 08:27:41;;;;;;;20.10;17.75;;;1.10;99.90;;;;;;4971076;28;20058;-74
2021/11/10 08:30:13;;;;;;;20.48;18.27;;;1.00;99.90;;;;;;4972201;28;20389;-74
2021/11/10 08:32:39;;;;;;;21.27;19.08;;;1.00;99.90;;;;;;4964568;28;20533;-74
2021/11/10 08:35:05;;;;;;;20.15;18.15;;;1.10;99.90;;;;;;4962757;28;20030;-74
2021/11/10 08:37:31;;;;;;;19.17;17.23;;;1.20;99.90;;;;;;4973192;28;20019;-74
2021/11/10 08:39:58;;;;;;;20.25;18.05;;;1.20;99.90;;;;;;4962053;28;20083;-74
2021/11/10 08:42:24;;;;;;;20.08;16.88;;;1.20;99.90;;;;;;4985434;28;20043;-74
2021/11/10 08:44:53;;;;;;;18.10;16.30;;;1.30;99.90;;;;;;4971620;28;20042;-74
2021/11/10 08:47:21;;;;;;;20.25;18.15;;;1.30;99.90;;;;;;4971384;28;20049;-74
2021/11/10 08:49:47;;;;;;;20.70;18.58;;;1.30;99.90;;;;;;4971377;28;20045;-74
2021/11/10 08:52:13;;;;;;;18.40;16.58;;;1.30;99.90;;;;;;4973517;28;20026;-74
2021/11/10 08:54:38;;;;;;;18.70;17.00;;;1.60;99.90;;;;;;4975131;28;20023;-74
2021/11/10 08:57:05;;;;;;;19.45;17.42;;;1.70;99.90;;;;;;4974911;28;20019;-74
2021/11/10 08:59:31;;;;;;;38.95;35.20;;;1.80;99.90;;;;;;4976492;28;20023;-74
2021/11/10 09:01:57;;;;;;;23.58;21.20;;;2.00;99.90;;;;;;4974938;28;20125;-74
2021/11/10 09:04:24;;;;;;;25.45;23.05;;;2.20;99.90;;;;;;4975067;28;20369;-74
2021/11/10 09:06:50;;;;;;;20.73;18.73;;;2.40;99.90;;;;;;4967063;28;20393;-74
2021/11/10 09:09:17;;;;;;;20.65;18.55;;;2.60;99.90;;;;;;4986785;28;20034;-74
2021/11/10 09:11:48;;;;;;;20.50;18.35;;;2.70;99.90;;;;;;4995391;28;20034;-74
2021/11/10 09:14:14;;;;;;;18.77;16.83;;;2.90;99.90;;;;;;4994240;28;20784;-74
2021/11/10 09:16:40;;;;;;;19.20;17.35;;;3.00;99.90;;;;;;4994092;28;20030;-74
2021/11/10 09:19:05;;;;;;;17.90;16.00;;;3.10;99.90;;;;;;4994149;28;20138;-74
2021/11/10 09:21:31;;;;;;;19.52;17.50;;;3.20;99.90;;;;;;4995824;28;20381;-74
2021/11/10 09:23:57;;;;;;;19.92;17.98;;;3.30;99.90;;;;;;4993928;28;20030;-74
2021/11/10 09:26:23;;;;;;;22.85;19.40;;;3.40;99.90;;;;;;4995306;28;20427;-74
2021/11/10 09:28:48;;;;;;;18.15;16.05;;;3.50;99.90;;;;;;4995140;28;20037;-74
2021/11/10 09:31:15;;;;;;;18.48;16.52;;;3.60;99.90;;;;;;4993716;28;20030;-74
2021/11/10 09:33:44;;;;;;;17.10;15.40;;;3.60;99.90;;;;;;4995671;28;20019;-74
2021/11/10 09:36:11;;;;;;;16.30;14.63;;;3.70;99.90;;;;;;4984072;28;20102;-74
2021/11/10 09:38:37;;;;;;;17.25;14.52;;;3.70;99.90;;;;;;4974198;28;20515;-74
2021/11/10 09:41:05;;;;;;;16.67;14.82;;;3.80;99.90;;;;;;4975667;28;20062;-74
2021/11/10 09:43:33;;;;;;;16.27;14.57;;;4.00;99.90;;;;;;4989428;28;20100;-74
2021/11/10 09:46:00;;;;;;;15.52;13.50;;;4.20;99.90;;;;;;4995424;28;20026;-75
2021/11/10 09:48:27;;;;;;;18.70;14.75;;;4.20;99.90;;;;;;4980748;28;20122;-74
2021/11/10 09:50:53;;;;;;;16.25;14.60;;;4.40;99.90;;;;;;4982976;28;20097;-74
2021/11/10 09:53:19;;;;;;;20.42;18.27;;;4.50;99.90;;;;;;4988891;28;20027;-73
2021/11/10 09:55:45;;;;;;;22.58;18.15;;;4.60;99.90;;;;;;4987410;28;20100;-74
2021/11/10 09:58:11;;;;;;;22.73;19.38;;;4.50;99.90;;;;;;4976093;28;20023;-73
2021/11/10 10:00:54;;;;;;;19.02;16.92;;;4.60;99.90;;;;;;4982317;28;20074;-74
2021/11/10 10:03:20;;;;;;;18.23;16.25;;;4.50;99.90;;;;;;4982536;28;20101;-74
2021/11/10 10:05:47;;;;;;;21.33;18.25;;;4.70;99.90;;;;;;4981302;28;20054;-74
2021/11/10 10:08:15;;;;;;;20.40;17.20;;;4.80;99.90;;;;;;4987034;28;20042;-74
2021/11/10 10:10:40;;;;;;;18.65;15.80;;;5.00;99.90;;;;;;4987289;28;20389;-74
2021/11/10 10:13:07;;;;;;;14.98;13.45;;;5.00;99.90;;;;;;4981781;28;20023;-74
2021/11/10 10:15:35;;;;;;;17.55;13.05;;;5.10;99.90;;;;;;4981335;28;20057;-74
2021/11/10 10:18:10;;;;;;;13.15;11.75;;;5.40;99.90;;;;;;4994470;28;20033;-74
2021/11/10 10:20:38;;;;;;;14.27;11.73;;;5.60;99.90;;;;;;4991628;28;20078;-74
2021/11/10 10:23:10;;;;;;;13.27;11.48;;;5.70;99.90;;;;;;4974958;28;20030;-73
2021/11/10 10:25:51;;;;;;;14.15;11.88;;;5.80;99.90;;;;;;4986954;28;20078;-74
2021/11/10 10:28:27;;;;;;;14.75;11.90;;;5.90;99.90;;;;;;4985914;28;20030;-74
2021/11/10 10:30:57;;;;;;;13.27;11.70;;;5.90;99.90;;;;;;4968422;28;20034;-74
2021/11/10 10:33:36;;;;;;;14.52;13.02;;;6.00;99.90;;;;;;4981251;28;20023;-74
2021/11/10 10:36:35;;;;;;;15.50;12.90;;;5.90;99.90;;;;;;4976185;28;20058;-74
2021/11/10 10:39:05;;;;;;;15.05;12.73;;;6.00;99.90;;;;;;4966658;28;20066;-74
2021/11/10 10:41:34;;;;;;;15.68;13.15;;;5.90;99.90;;;;;;4977631;28;20027;-74
2021/11/10 10:44:04;;;;;;;13.63;12.18;;;6.00;99.90;;;;;;4973501;28;20039;-73
2021/11/10 10:46:32;;;;;;;17.42;13.00;;;6.00;99.90;;;;;;4973205;28;20081;-74
2021/11/10 10:49:19;;;;;;;15.75;12.65;;;6.10;99.90;;;;;;4974611;28;20489;-74
2021/11/10 10:51:47;;;;;;;12.68;11.43;;;6.20;99.90;;;;;;4974397;28;20046;-74
2021/11/10 10:54:12;;;;;;;13.57;12.13;;;6.10;99.90;;;;;;4973227;28;20109;-74
2021/11/10 10:56:42;;;;;;;17.40;12.50;;;6.20;99.90;;;;;;4987513;28;20106;-74
2021/11/10 10:59:13;;;;;;;15.00;13.38;;;6.10;99.90;;;;;;4974597;28;20019;-74
2021/11/10 11:01:44;;;;;;;16.25;13.45;;;6.10;99.90;;;;;;4960119;28;20493;-74
2021/11/10 11:04:13;;;;;;;15.95;12.60;;;6.20;99.90;;;;;;4978448;28;20488;-74
2021/11/10 11:06:48;;;;;;;15.15;13.38;;;6.20;99.90;;;;;;4984331;28;20113;-74
2021/11/10 11:09:18;;;;;;;14.85;12.98;;;6.40;99.90;;;;;;4985315;28;20373;-74
2021/11/10 11:11:57;;;;;;;18.20;14.82;;;6.40;99.90;;;;;;4987281;28;20026;-74
2021/11/10 11:14:38;;;;;;;17.05;14.45;;;6.30;99.90;;;;;;4976107;28;20025;-74
2021/11/10 11:17:19;;;;;;;18.52;15.00;;;6.50;99.90;;;;;;4985042;28;20064;-74
2021/11/10 11:20:19;;;;;;;17.33;13.65;;;6.50;99.90;;;;;;4980544;28;20100;-74
2021/11/10 11:22:45;;;;;;;17.80;13.88;;;6.50;99.90;;;;;;4976058;28;20038;-74
2021/11/10 11:25:28;;;;;;;18.10;15.35;;;6.60;99.90;;;;;;4985316;28;20027;-74
2021/11/10 11:27:58;;;;;;;19.27;14.73;;;6.60;99.90;;;;;;4981821;28;20396;-74
2021/11/10 11:30:27;;;;;;;17.60;14.25;;;6.60;99.90;;;;;;4985012;28;20460;-74
2021/11/10 11:32:58;;;;;;;16.15;13.25;;;6.70;99.90;;;;;;4984831;28;20026;-74
2021/11/10 11:35:27;;;;;;;16.80;14.15;;;6.80;99.90;;;;;;4983394;28;20026;-73
2021/11/10 11:37:59;;;;;;;17.33;13.77;;;7.00;99.90;;;;;;4980995;28;20026;-73
2021/11/10 11:40:25;;;;;;;18.50;13.52;;;7.00;99.90;;;;;;4980625;28;20038;-74
2021/11/10 11:42:54;;;;;;;18.55;13.10;;;7.00;99.90;;;;;;4972406;28;20062;-74
2021/11/10 11:45:24;;;;;;;15.73;13.10;;;7.10;99.90;;;;;;4983679;28;20101;-74
2021/11/10 11:47:52;;;;;;;16.88;13.25;;;7.20;99.90;;;;;;4987743;28;20026;-74
2021/11/10 11:50:18;;;;;;;16.27;14.52;;;7.20;99.90;;;;;;4975941;28;20035;-74
2021/11/10 11:52:45;;;;;;;14.82;13.05;;;7.20;99.90;;;;;;4980009;28;20434;-74
2021/11/10 11:55:23;;;;;;;19.92;14.77;;;7.20;99.90;;;;;;4975553;28;20126;-74
2021/11/10 11:58:02;;;;;;;17.52;13.48;;;7.20;99.90;;;;;;4962966;28;20430;-74
2021/11/10 12:00:29;;;;;;;18.15;14.45;;;7.10;99.90;;;;;;4982005;28;20102;-74
2021/11/10 12:02:55;;;;;;;16.88;14.25;;;7.20;99.90;;;;;;4986928;28;20070;-74
2021/11/10 12:05:25;;;;;;;17.58;15.38;;;7.20;99.90;;;;;;4985352;28;20027;-74
2021/11/10 12:07:58;;;;;;;22.27;18.15;;;7.30;99.90;;;;;;4971749;28;20035;-74
2021/11/10 12:10:24;;;;;;;27.15;18.52;;;7.40;99.90;;;;;;4965586;28;20034;-74
2021/11/10 12:12:50;;;;;;;22.25;17.70;;;7.50;99.90;;;;;;4974824;28;20448;-73
2021/11/10 12:15:16;;;;;;;23.73;18.13;;;7.70;99.90;;;;;;4969707;28;20049;-73
2021/11/10 12:18:05;;;;;;;23.20;17.23;;;7.70;99.90;;;;;;4975750;28;20052;-74
2021/11/10 12:20:41;;;;;;;23.20;18.90;;;7.80;99.90;;;;;;4992071;28;20490;-74
2021/11/10 12:23:07;;;;;;;25.40;19.70;;;7.90;99.90;;;;;;4981396;28;20030;-74
2021/11/10 12:25:33;;;;;;;23.85;18.90;;;7.80;99.90;;;;;;4987505;28;20034;-74
2021/11/10 12:27:58;;;;;;;24.90;18.77;;;7.80;99.90;;;;;;4978030;28;20027;-74
2021/11/10 12:30:30;;;;;;;25.88;19.33;;;7.60;99.90;;;;;;4979305;28;20500;-74
2021/11/10 12:32:59;;;;;;;23.45;18.33;;;7.60;99.90;;;;;;4977192;28;20037;-74
2021/11/10 12:35:31;;;;;;;24.83;19.58;;;7.60;99.90;;;;;;4984050;28;20519;-74
2021/11/10 12:37:59;;;;;;;27.30;20.20;;;7.60;99.90;;;;;;4978040;28;20031;-74